createdAt,value
2019-03-11T00:01:39.734Z,95.20
2019-03-11T00:04:09.592Z,95.40
2019-03-11T00:06:39.601Z,95.40
2019-03-11T00:09:08.778Z,95.30
2019-03-11T00:11:39.445Z,95.10
2019-03-11T00:14:08.976Z,95.40
2019-03-11T00:16:38.475Z,95.40
2019-03-11T00:19:07.755Z,95.60
2019-03-11T00:21:36.950Z,95.60
2019-03-11T00:24:06.724Z,95.30
2019-03-11T00:26:36.203Z,95.10
2019-03-11T00:29:05.462Z,95.10
2019-03-11T00:31:35.009Z,95.00
2019-03-11T00:34:04.191Z,95.10
2019-03-11T00:36:34.998Z,94.80
2019-03-11T00:39:06.104Z,94.90
2019-03-11T00:41:35.417Z,94.30
2019-03-11T00:44:04.662Z,94.50
2019-03-11T00:46:33.898Z,94.80
2019-03-11T00:49:03.166Z,94.90
2019-03-11T00:51:32.412Z,95.20
2019-03-11T00:54:01.676Z,95.40
2019-03-11T00:56:30.928Z,95.30
2019-03-11T00:59:00.188Z,95.10
2019-03-11T01:01:29.641Z,95.50
2019-03-11T01:03:58.880Z,95.70
2019-03-11T01:06:28.123Z,95.80
2019-03-11T01:08:57.375Z,95.80
2019-03-11T01:11:26.909Z,96.20
2019-03-11T01:13:56.416Z,95.80
2019-03-11T01:16:25.649Z,96.20
2019-03-11T01:18:54.814Z,96.30
2019-03-11T01:21:23.973Z,96.20
2019-03-11T01:23:53.159Z,96.20
2019-03-11T01:26:22.602Z,96.00
2019-03-11T01:28:51.773Z,96.00
2019-03-11T01:31:20.944Z,96.30
2019-03-11T01:33:50.186Z,96.20
2019-03-11T01:36:19.345Z,96.30
2019-03-11T01:38:48.537Z,96.50
2019-03-11T01:41:17.991Z,96.50
2019-03-11T01:43:49.946Z,96.50
2019-03-11T01:46:19.107Z,96.40
2019-03-11T01:48:48.526Z,96.30
2019-03-11T01:51:17.832Z,96.40
2019-03-11T01:53:47.017Z,96.40
2019-03-11T01:56:16.266Z,96.30
2019-03-11T01:58:45.451Z,96.20
2019-03-11T02:01:14.976Z,96.20
2019-03-11T02:03:44.259Z,96.00
2019-03-11T02:06:13.490Z,96.20
2019-03-11T02:08:42.679Z,95.90
2019-03-11T02:11:12.286Z,95.90
2019-03-11T02:13:41.671Z,95.90
2019-03-11T02:16:11.192Z,96.00
2019-03-11T02:18:40.798Z,96.20
2019-03-11T02:21:10.664Z,96.20
2019-03-11T02:23:39.939Z,96.10
2019-03-11T02:26:09.240Z,95.80
2019-03-11T02:28:38.514Z,96.00
2019-03-11T02:31:08.150Z,96.00
2019-03-11T02:33:37.449Z,96.70
2019-03-11T02:36:08.018Z,96.60
2019-03-11T02:38:37.359Z,97.00
2019-03-11T02:41:07.921Z,96.90
2019-03-11T02:43:37.207Z,96.80
2019-03-11T02:46:06.840Z,97.00
2019-03-11T02:48:36.122Z,97.00
2019-03-11T02:51:05.440Z,96.90
2019-03-11T02:53:35.147Z,96.80
2019-03-11T02:56:04.416Z,96.70
2019-03-11T02:58:34.327Z,96.90
2019-03-11T03:01:14.827Z,97.00
2019-03-11T03:03:44.443Z,97.00
2019-03-11T03:06:15.339Z,96.80
2019-03-11T03:08:44.597Z,96.80
2019-03-11T03:11:13.889Z,97.10
2019-03-11T03:13:43.149Z,97.00
2019-03-11T03:16:12.424Z,96.80
2019-03-11T03:18:41.692Z,96.80
2019-03-11T03:21:11.057Z,97.00
2019-03-11T03:23:40.320Z,96.30
2019-03-11T03:26:09.592Z,96.40
2019-03-11T03:28:38.853Z,96.80
2019-03-11T03:31:08.148Z,96.70
2019-03-11T03:33:37.398Z,96.60
2019-03-11T03:36:06.692Z,96.90
2019-03-11T03:38:36.292Z,97.00
2019-03-11T03:41:05.559Z,96.70
2019-03-11T03:43:35.905Z,97.00
2019-03-11T03:46:18.036Z,97.00
2019-03-11T03:48:36.251Z,96.90
2019-03-11T03:51:05.543Z,97.10
2019-03-11T03:53:35.173Z,97.40
2019-03-11T03:56:04.741Z,97.30
2019-03-11T03:58:34.022Z,97.40
2019-03-11T04:01:03.278Z,97.50
2019-03-11T04:03:32.570Z,97.30
2019-03-11T04:06:01.842Z,97.30
2019-03-11T04:08:31.144Z,97.30
2019-03-11T04:11:00.430Z,97.30
2019-03-11T04:13:29.727Z,97.60
2019-03-11T04:15:58.999Z,97.10
2019-03-11T04:18:51.230Z,97.30
2019-03-11T04:21:20.483Z,97.30
2019-03-11T04:23:49.750Z,97.40
2019-03-11T04:26:19.035Z,97.60
2019-03-11T04:28:48.298Z,97.50
2019-03-11T04:31:17.575Z,97.70
2019-03-11T04:33:46.862Z,97.60
2019-03-11T04:36:16.326Z,97.70
2019-03-11T04:38:45.623Z,98.00
2019-03-11T04:41:14.887Z,97.80
2019-03-11T04:43:44.168Z,98.00
2019-03-11T04:46:13.451Z,97.90
2019-03-11T04:48:43.062Z,97.80
2019-03-11T04:51:13.294Z,98.00
2019-03-11T04:53:42.848Z,98.00
2019-03-11T04:56:12.490Z,97.90
2019-03-11T04:58:41.785Z,97.80
2019-03-11T05:01:11.059Z,97.90
2019-03-11T05:03:40.335Z,97.70
2019-03-11T05:06:09.616Z,98.10
2019-03-11T05:08:39.908Z,98.10
2019-03-11T05:11:09.081Z,98.30
2019-03-11T05:13:38.597Z,97.80
2019-03-11T05:16:07.766Z,98.00
2019-03-11T05:18:36.914Z,98.30
2019-03-11T05:21:06.112Z,98.20
2019-03-11T05:23:35.370Z,98.30
2019-03-11T05:26:04.661Z,98.30
2019-03-11T05:28:33.825Z,99.10
2019-03-11T05:31:03.336Z,98.40
2019-03-11T05:33:32.617Z,98.30
2019-03-11T05:36:01.884Z,98.20
2019-03-11T05:38:31.093Z,98.30
2019-03-11T05:41:00.276Z,98.10
2019-03-11T05:43:29.711Z,98.20
2019-03-11T05:45:58.947Z,98.10
2019-03-11T05:48:28.120Z,97.90
2019-03-11T05:50:57.284Z,97.90
2019-03-11T05:53:26.612Z,98.30
2019-03-11T05:55:56.927Z,98.30
2019-03-11T05:58:26.662Z,98.50
2019-03-11T06:00:55.955Z,98.40
2019-03-11T06:03:25.157Z,98.40
2019-03-11T06:05:54.629Z,98.20
2019-03-11T06:08:23.866Z,98.40
2019-03-11T06:10:53.318Z,98.70
2019-03-11T06:13:22.548Z,98.50
2019-03-11T06:15:52.046Z,98.70
2019-03-11T06:18:37.905Z,98.80
2019-03-11T06:21:17.369Z,99.00
2019-03-11T06:23:46.579Z,99.20
2019-03-11T06:26:15.792Z,98.90
2019-03-11T06:28:45.412Z,98.90
2019-03-11T06:31:14.680Z,99.10
2019-03-11T06:33:43.959Z,98.80
2019-03-11T06:36:13.637Z,99.10
2019-03-11T06:38:43.223Z,99.00
2019-03-11T06:41:12.833Z,98.70
2019-03-11T06:43:42.199Z,98.50
2019-03-11T06:46:11.580Z,98.60
2019-03-11T06:48:41.139Z,98.50
2019-03-11T06:51:10.770Z,98.70
2019-03-11T06:53:40.024Z,98.40
2019-03-11T06:56:09.322Z,98.60
2019-03-11T06:58:38.604Z,98.50
2019-03-11T07:01:07.875Z,98.60
2019-03-11T07:03:37.481Z,98.30
2019-03-11T07:06:07.111Z,98.50
2019-03-11T07:08:36.405Z,98.40
2019-03-11T07:11:05.704Z,98.50
2019-03-11T07:13:34.969Z,98.50
2019-03-11T07:16:04.255Z,98.40
2019-03-11T07:18:33.524Z,97.90
2019-03-11T07:21:03.216Z,98.20
2019-03-11T07:23:32.810Z,98.30
2019-03-11T07:26:02.097Z,98.20
2019-03-11T07:28:31.397Z,98.20
2019-03-11T07:31:00.644Z,98.00
2019-03-11T07:33:29.943Z,97.50
2019-03-11T07:35:59.221Z,97.50
2019-03-11T07:38:28.494Z,97.30
2019-03-11T07:40:58.144Z,97.60
2019-03-11T07:43:27.429Z,97.70
2019-03-11T07:45:56.793Z,97.50
2019-03-11T07:48:26.070Z,97.30
2019-03-11T07:50:55.363Z,97.40
2019-03-11T07:53:24.616Z,97.00
2019-03-11T07:55:54.201Z,97.40
2019-03-11T07:58:23.463Z,96.90
2019-03-11T08:00:54.142Z,96.90
2019-03-11T08:03:23.735Z,97.10
2019-03-11T08:05:52.954Z,97.00
2019-03-11T08:08:22.272Z,96.80
2019-03-11T08:10:51.891Z,97.10
2019-03-11T08:13:21.176Z,96.50
2019-03-11T08:15:50.518Z,96.50
2019-03-11T08:18:19.900Z,96.60
2019-03-11T08:20:49.177Z,96.80
2019-03-11T08:23:18.465Z,96.50
2019-03-11T08:25:47.792Z,96.70
2019-03-11T08:28:17.093Z,96.80
2019-03-11T08:30:46.403Z,96.40
2019-03-11T08:33:16.011Z,96.90
2019-03-11T08:35:45.313Z,97.10
2019-03-11T08:38:14.913Z,96.90
2019-03-11T08:40:44.199Z,96.90
2019-03-11T08:43:13.471Z,96.70
2019-03-11T08:45:42.763Z,96.80
2019-03-11T08:48:12.057Z,96.80
2019-03-11T08:50:41.338Z,96.70
2019-03-11T08:53:10.765Z,96.80
2019-03-11T08:55:40.344Z,96.90
2019-03-11T08:58:09.632Z,96.90
2019-03-11T09:00:38.920Z,97.00
2019-03-11T09:03:08.248Z,96.90
2019-03-11T09:05:37.521Z,97.00
2019-03-11T09:08:06.811Z,97.30
2019-03-11T09:10:36.097Z,96.80
2019-03-11T09:13:05.456Z,96.60
2019-03-11T09:15:35.069Z,97.10
2019-03-11T09:18:04.730Z,96.90
2019-03-11T09:20:34.397Z,97.50
2019-03-11T09:23:03.657Z,96.80
2019-03-11T09:25:33.652Z,97.40
2019-03-11T09:28:03.936Z,97.10
2019-03-11T09:30:33.227Z,96.80
2019-03-11T09:33:02.524Z,96.60
2019-03-11T09:35:32.238Z,97.20
2019-03-11T09:38:03.780Z,96.90
2019-03-11T09:40:32.414Z,96.90
2019-03-11T09:43:01.697Z,96.70
2019-03-11T09:45:30.969Z,96.90
2019-03-11T09:48:00.273Z,96.90
2019-03-11T09:50:29.560Z,96.60
2019-03-11T09:52:59.180Z,96.60
2019-03-11T09:55:29.331Z,96.30
2019-03-11T09:57:58.606Z,96.10
2019-03-11T10:00:30.401Z,96.10
2019-03-11T10:02:59.688Z,96.20
2019-03-11T10:05:29.048Z,96.20
2019-03-11T10:07:58.432Z,96.20
2019-03-11T10:10:29.979Z,96.20
2019-03-11T10:12:59.195Z,96.10
2019-03-11T10:15:28.473Z,95.80
2019-03-11T10:17:58.040Z,96.20
2019-03-11T10:20:27.749Z,95.70
2019-03-11T10:22:57.354Z,95.90
2019-03-11T10:25:26.619Z,95.40
2019-03-11T10:27:56.002Z,95.50
2019-03-11T10:30:25.327Z,95.30
2019-03-11T10:32:54.981Z,95.40
2019-03-11T10:35:31.751Z,95.50
2019-03-11T10:37:55.417Z,95.30
2019-03-11T10:40:30.427Z,95.00
2019-03-11T10:42:59.632Z,94.70
2019-03-11T10:45:31.555Z,94.70
2019-03-11T10:47:59.827Z,94.80
2019-03-11T10:50:29.334Z,95.30
2019-03-11T10:52:58.669Z,95.30
2019-03-11T10:55:28.344Z,94.90
2019-03-11T10:57:57.624Z,94.60
2019-03-11T11:00:32.572Z,94.70
2019-03-11T11:03:02.266Z,95.10
2019-03-11T11:05:31.566Z,94.60
2019-03-11T11:08:00.853Z,94.40
2019-03-11T11:10:30.119Z,94.20
2019-03-11T11:12:59.743Z,94.30
2019-03-11T11:15:30.510Z,94.00
2019-03-11T11:17:59.758Z,94.00
2019-03-11T11:20:29.383Z,94.30
2019-03-11T11:22:58.668Z,93.10
2019-03-11T11:25:28.858Z,93.40
2019-03-11T11:27:58.430Z,92.90
2019-03-11T11:30:28.879Z,93.50
2019-03-11T11:32:58.177Z,93.90
2019-03-11T11:35:27.495Z,92.70
2019-03-11T11:37:56.728Z,93.80
2019-03-11T11:40:28.393Z,93.80
2019-03-11T11:42:57.697Z,94.00
2019-03-11T11:45:27.999Z,94.50
2019-03-11T11:47:57.562Z,93.90
2019-03-11T11:50:26.749Z,93.30
2019-03-11T11:52:55.909Z,93.50
2019-03-11T11:55:25.154Z,93.80
2019-03-11T11:57:54.640Z,93.10
2019-03-11T12:00:32.810Z,93.40
2019-03-11T12:03:02.350Z,92.90
2019-03-11T12:05:31.669Z,93.00
2019-03-11T12:08:01.568Z,93.00
2019-03-11T12:10:31.906Z,92.70
2019-03-11T12:13:01.512Z,91.70
2019-03-11T12:15:30.872Z,91.20
2019-03-11T12:18:00.431Z,91.30
2019-03-11T12:20:32.474Z,91.10
2019-03-11T12:23:01.626Z,91.00
2019-03-11T12:25:30.812Z,91.90
2019-03-11T12:28:00.191Z,91.20
2019-03-11T12:30:30.534Z,91.20
2019-03-11T12:32:59.846Z,91.10
2019-03-11T12:35:29.097Z,91.90
2019-03-11T12:38:10.866Z,92.60
2019-03-11T12:40:40.112Z,92.90
2019-03-11T12:43:09.346Z,92.00
2019-03-11T12:45:38.587Z,91.70
2019-03-11T12:48:08.234Z,91.80
2019-03-11T12:50:37.478Z,91.50
2019-03-11T12:53:07.076Z,90.90
2019-03-11T12:55:37.763Z,90.80
2019-03-11T12:58:07.187Z,91.20
2019-03-11T13:00:36.693Z,91.40
2019-03-11T13:03:06.004Z,90.50
2019-03-11T13:05:35.321Z,90.80
2019-03-11T13:08:04.563Z,91.50
2019-03-11T13:10:33.734Z,89.90
2019-03-11T13:13:03.072Z,90.00
2019-03-11T13:15:32.231Z,89.30
2019-03-11T13:18:33.374Z,90.00
2019-03-11T13:21:11.889Z,90.00
2019-03-11T13:23:41.666Z,90.10
2019-03-11T13:26:11.185Z,89.70
2019-03-11T13:28:40.472Z,90.50
2019-03-11T13:31:09.739Z,90.20
2019-03-11T13:33:38.978Z,90.00
2019-03-11T13:36:08.629Z,90.30
2019-03-11T13:38:38.482Z,90.20
2019-03-11T13:41:07.810Z,90.60
2019-03-11T13:43:37.376Z,90.50
2019-03-11T13:46:06.744Z,90.40
2019-03-11T13:48:36.399Z,90.00
2019-03-11T13:51:05.632Z,90.90
2019-03-11T13:53:34.863Z,90.10
2019-03-11T13:56:04.406Z,90.30
2019-03-11T13:58:33.572Z,90.30
2019-03-11T14:01:02.846Z,90.50
2019-03-11T14:03:32.600Z,90.40
2019-03-11T14:06:01.775Z,91.10
2019-03-11T14:08:30.942Z,91.30
2019-03-11T14:11:00.410Z,91.80
2019-03-11T14:13:29.920Z,91.70
2019-03-11T14:15:59.440Z,91.30
2019-03-11T14:18:28.649Z,91.00
2019-03-11T14:20:57.878Z,90.90
2019-03-11T14:23:27.038Z,91.50
2019-03-11T14:25:56.204Z,91.50
2019-03-11T14:28:25.669Z,90.80
2019-03-11T14:30:56.175Z,91.10
2019-03-11T14:33:25.391Z,91.00
2019-03-11T14:35:54.565Z,90.50
2019-03-11T14:38:24.065Z,90.70
2019-03-11T14:40:53.674Z,90.40
2019-03-11T14:43:23.178Z,91.20
2019-03-11T14:45:52.350Z,89.90
2019-03-11T14:48:21.657Z,90.80
2019-03-11T14:50:51.196Z,90.30
2019-03-11T14:53:20.362Z,90.30
2019-03-11T14:55:49.612Z,90.70
2019-03-11T14:58:28.796Z,90.70
2019-03-11T15:00:49.643Z,90.10
2019-03-11T15:03:18.815Z,90.20
2019-03-11T15:05:48.063Z,90.70
2019-03-11T15:08:17.296Z,91.30
2019-03-11T15:10:46.521Z,90.50
2019-03-11T15:13:15.695Z,90.20
2019-03-11T15:15:44.845Z,90.00
2019-03-11T15:18:14.318Z,89.90
2019-03-11T15:20:43.477Z,90.00
2019-03-11T15:23:20.334Z,90.30
2019-03-11T15:25:44.650Z,91.60
2019-03-11T15:28:13.863Z,90.00
2019-03-11T15:30:43.175Z,88.70
2019-03-11T15:33:12.346Z,87.80
2019-03-11T15:35:41.495Z,88.10
2019-03-11T15:38:10.681Z,88.20
2019-03-11T15:40:39.840Z,88.20
2019-03-11T15:43:09.337Z,88.30
2019-03-11T15:45:39.291Z,88.70
2019-03-11T15:48:08.613Z,88.80
2019-03-11T15:50:38.110Z,89.10
2019-03-11T15:53:07.357Z,90.00
2019-03-11T15:55:36.601Z,89.00
2019-03-11T15:58:05.839Z,89.60
2019-03-11T16:00:35.559Z,90.10
2019-03-11T16:03:04.791Z,88.90
2019-03-11T16:05:33.951Z,89.60
2019-03-11T16:08:03.204Z,90.30
2019-03-11T16:10:32.702Z,91.50
2019-03-11T16:13:01.901Z,90.70
2019-03-11T16:15:31.438Z,91.20
2019-03-11T16:18:01.047Z,91.10
2019-03-11T16:20:30.236Z,91.00
2019-03-11T16:22:59.752Z,91.80
2019-03-11T16:25:28.981Z,92.40
2019-03-11T16:27:58.155Z,93.20
2019-03-11T16:30:27.734Z,92.70
2019-03-11T16:33:00.455Z,93.00
2019-03-11T16:35:28.723Z,93.40
2019-03-11T16:37:57.955Z,93.50
2019-03-11T16:40:27.117Z,93.80
2019-03-11T16:42:56.287Z,94.40
2019-03-11T16:45:25.466Z,95.50
2019-03-11T16:47:54.709Z,95.00
2019-03-11T16:50:28.222Z,94.60
2019-03-11T16:52:57.473Z,94.70
2019-03-11T16:55:28.278Z,95.10
2019-03-11T16:57:57.545Z,95.70
2019-03-11T17:00:28.698Z,95.40
2019-03-11T17:02:58.241Z,96.90
2019-03-11T17:05:27.514Z,95.90
2019-03-11T17:07:56.766Z,96.20
2019-03-11T17:10:25.933Z,96.90
2019-03-11T17:12:55.501Z,96.50
2019-03-11T17:15:25.029Z,96.60
2019-03-11T17:17:54.626Z,96.70
2019-03-11T17:20:23.869Z,97.30
2019-03-11T17:22:53.081Z,97.00
2019-03-11T17:25:22.382Z,97.10
2019-03-11T17:27:51.711Z,96.60
2019-03-11T17:30:23.578Z,97.00
2019-03-11T17:32:53.220Z,96.50
2019-03-11T17:35:22.465Z,97.10
2019-03-11T17:37:51.654Z,97.00
2019-03-11T17:40:22.279Z,96.60
2019-03-11T17:42:51.589Z,98.30
2019-03-11T17:45:20.929Z,96.80
2019-03-11T17:47:50.127Z,96.80
2019-03-11T17:50:24.019Z,97.10
2019-03-11T17:52:53.213Z,97.20
2019-03-11T17:55:22.809Z,97.50
2019-03-11T17:57:52.463Z,97.30
2019-03-11T18:00:42.493Z,97.60
2019-03-11T18:03:11.751Z,97.80
2019-03-11T18:05:41.011Z,97.50
2019-03-11T18:08:10.669Z,97.50
2019-03-11T18:10:41.179Z,97.60
2019-03-11T18:13:10.752Z,97.40
2019-03-11T18:15:39.937Z,98.00
2019-03-11T18:18:09.613Z,98.10
2019-03-11T18:20:38.870Z,98.50
2019-03-11T18:23:08.586Z,98.50
2019-03-11T18:25:38.083Z,98.10
2019-03-11T18:28:07.326Z,98.40
2019-03-11T18:30:36.941Z,97.90
2019-03-11T18:33:06.238Z,98.10
2019-03-11T18:35:35.556Z,98.50
2019-03-11T18:38:05.298Z,98.10
2019-03-11T18:40:34.801Z,98.50
2019-03-11T18:43:04.390Z,98.90
2019-03-11T18:45:33.691Z,99.00
2019-03-11T18:48:03.269Z,98.70
2019-03-11T18:50:45.824Z,99.20
2019-03-11T18:53:15.144Z,99.00
2019-03-11T18:55:44.644Z,99.40
2019-03-11T18:58:13.930Z,99.70
2019-03-11T19:00:43.197Z,99.70
2019-03-11T19:03:12.468Z,99.50
2019-03-11T19:05:41.728Z,99.40
2019-03-11T19:08:11.298Z,99.00
2019-03-11T19:10:40.595Z,99.50
2019-03-11T19:13:09.853Z,99.90
2019-03-11T19:15:40.190Z,99.90
2019-03-11T19:18:09.429Z,99.90
2019-03-11T19:20:38.681Z,99.90
2019-03-11T19:23:07.971Z,99.80
2019-03-11T19:25:37.641Z,99.90
2019-03-11T19:28:07.255Z,99.90
2019-03-11T19:30:36.492Z,99.90
2019-03-11T19:33:06.171Z,99.90
2019-03-11T19:35:35.413Z,99.90
2019-03-11T19:38:04.666Z,99.90
2019-03-11T19:40:33.878Z,99.90
2019-03-11T19:43:03.228Z,99.90
2019-03-11T19:45:32.534Z,99.90
2019-03-11T19:48:01.811Z,99.90
2019-03-11T19:50:31.470Z,99.90
2019-03-11T19:53:00.765Z,99.90
2019-03-11T19:55:30.024Z,99.90
2019-03-11T19:57:59.566Z,99.90
2019-03-11T20:00:28.785Z,99.90
2019-03-11T20:02:58.067Z,99.90
2019-03-11T20:05:28.840Z,99.90
2019-03-11T20:08:01.400Z,99.90
2019-03-11T20:10:30.633Z,99.90
2019-03-11T20:13:00.208Z,99.90
2019-03-11T20:15:29.778Z,99.90
2019-03-11T20:17:58.982Z,99.90
2019-03-11T20:20:28.202Z,99.90
2019-03-11T20:22:57.865Z,99.90
2019-03-11T20:25:35.750Z,99.90
2019-03-11T20:28:05.063Z,99.90
2019-03-11T20:30:34.257Z,99.90
2019-03-11T20:33:04.098Z,99.90
2019-03-11T20:35:33.690Z,99.90
2019-03-11T20:38:04.127Z,99.90
2019-03-11T20:40:33.353Z,99.90
2019-03-11T20:43:02.719Z,99.90
2019-03-11T20:45:32.391Z,99.90
2019-03-11T20:48:01.588Z,99.90
2019-03-11T20:50:41.566Z,99.90
2019-03-11T20:53:01.814Z,99.90
2019-03-11T20:55:33.947Z,99.90
2019-03-11T20:58:02.389Z,99.90
2019-03-11T21:00:31.718Z,99.90
2019-03-11T21:03:00.932Z,99.90
2019-03-11T21:05:38.332Z,99.90
2019-03-11T21:08:07.547Z,99.90
2019-03-11T21:10:37.576Z,99.90
2019-03-11T21:13:07.204Z,99.90
2019-03-11T21:15:36.789Z,99.90
2019-03-11T21:18:06.004Z,99.90
2019-03-11T21:20:35.241Z,99.90
2019-03-11T21:23:04.657Z,99.90
2019-03-11T21:25:34.247Z,99.90
2019-03-11T21:28:03.647Z,99.90
2019-03-11T21:30:33.275Z,99.90
2019-03-11T21:33:03.371Z,99.90
2019-03-11T21:35:32.903Z,99.90
2019-03-11T21:38:02.487Z,99.90
2019-03-11T21:40:31.767Z,99.90
2019-03-11T21:43:01.190Z,99.90
2019-03-11T21:45:34.363Z,99.90
2019-03-11T21:48:01.696Z,99.90
2019-03-11T21:50:31.304Z,99.90
2019-03-11T21:53:00.631Z,99.90
2019-03-11T21:55:29.978Z,99.90
2019-03-11T21:58:12.166Z,99.90
2019-03-11T22:00:34.938Z,99.90
2019-03-11T22:03:01.309Z,99.90
2019-03-11T22:05:31.168Z,99.90
2019-03-11T22:08:00.555Z,99.90
2019-03-11T22:10:29.838Z,99.90
2019-03-11T22:12:59.455Z,99.90
2019-03-11T22:15:28.733Z,99.90
2019-03-11T22:17:58.089Z,99.90
2019-03-11T22:20:27.652Z,99.90
2019-03-11T22:22:56.908Z,99.90
2019-03-11T22:25:26.227Z,99.90
2019-03-11T22:27:55.506Z,99.90
2019-03-11T22:30:25.507Z,99.90
2019-03-11T22:32:54.853Z,99.90
2019-03-11T22:35:24.158Z,99.90
2019-03-11T22:37:53.518Z,99.80
2019-03-11T22:40:22.815Z,99.90
2019-03-11T22:42:52.161Z,99.90
2019-03-11T22:45:21.779Z,99.90
2019-03-11T22:47:51.233Z,99.90
2019-03-11T22:50:23.319Z,99.90
2019-03-11T22:52:52.598Z,99.90
2019-03-11T22:55:21.845Z,99.90
2019-03-11T22:57:51.169Z,99.90
2019-03-11T23:00:30.776Z,99.90
2019-03-11T23:03:01.710Z,99.90
2019-03-11T23:05:31.399Z,99.90
2019-03-11T23:08:00.724Z,99.90
2019-03-11T23:10:30.019Z,99.90
2019-03-11T23:12:59.367Z,99.90
2019-03-11T23:15:29.045Z,99.90
2019-03-11T23:17:58.404Z,99.90
2019-03-11T23:20:27.790Z,99.90
2019-03-11T23:22:57.124Z,99.90
2019-03-11T23:25:26.417Z,99.90
2019-03-11T23:27:56.116Z,99.90
2019-03-11T23:30:25.865Z,99.90
2019-03-11T23:32:55.164Z,99.90
2019-03-11T23:35:24.513Z,99.90
2019-03-11T23:37:53.787Z,99.90
2019-03-11T23:40:23.065Z,99.90
2019-03-11T23:42:52.434Z,99.90
2019-03-11T23:45:21.795Z,99.90
2019-03-11T23:47:51.112Z,99.90
2019-03-11T23:50:20.465Z,99.90
2019-03-11T23:52:49.778Z,99.90
2019-03-11T23:55:21.156Z,99.90
2019-03-11T23:58:26.461Z,99.90
